Time;durP1;ratioP1;P1;durP2;ratioP2;P2;SDS_P1;SDS_P2;PMS_P1;PMS_P2;Temp;Humidity;BMP_temperature;BMP_pressure;BME280_temperature;BME280_humidity;BME280_pressure;Samples;Min_cycle;Max_cycle;Signal;HPM_P1;HPM_P2
2021/04/11 00:01:20;;;;;;;46.38;29.30;;;17.50;56.60;;;;;;5094517;28;20037;-62
2021/04/11 00:03:47;;;;;;;45.08;29.98;;;17.40;56.60;;;;;;5094459;28;20024;-62
2021/04/11 00:06:13;;;;;;;46.15;28.02;;;17.40;56.70;;;;;;5094361;28;20426;-62
2021/04/11 00:08:38;;;;;;;44.33;26.67;;;17.40;56.70;;;;;;5094074;28;20020;-62
2021/04/11 00:11:05;;;;;;;44.67;27.23;;;17.40;56.70;;;;;;5094569;28;20020;-62
2021/04/11 00:13:36;;;;;;;41.40;26.80;;;17.40;56.90;;;;;;5094403;28;20468;-62
2021/04/11 00:16:03;;;;;;;39.83;25.15;;;17.30;56.80;;;;;;5094201;28;20529;-62
2021/04/11 00:18:29;;;;;;;46.08;28.13;;;17.30;56.80;;;;;;5094137;28;20049;-62
2021/04/11 00:20:55;;;;;;;42.88;27.67;;;17.30;57.00;;;;;;5094446;28;20028;-62
2021/04/11 00:23:22;;;;;;;40.75;24.73;;;17.30;57.00;;;;;;5094306;28;20024;-62
2021/04/11 00:25:49;;;;;;;39.20;24.48;;;17.20;56.90;;;;;;5094623;28;20028;-62
2021/04/11 00:28:15;;;;;;;37.13;24.33;;;17.20;56.90;;;;;;5093836;28;20051;-62
2021/04/11 00:30:41;;;;;;;43.20;24.85;;;17.20;56.90;;;;;;5093791;28;20487;-62
2021/04/11 00:33:18;;;;;;;38.88;24.38;;;17.20;56.80;;;;;;5093918;28;20028;-62
2021/04/11 00:35:44;;;;;;;43.30;24.83;;;17.10;57.00;;;;;;5094254;28;20024;-62
2021/04/11 00:38:10;;;;;;;39.50;25.27;;;17.10;57.30;;;;;;5093008;28;20028;-62
2021/04/11 00:40:37;;;;;;;35.38;24.13;;;17.20;57.00;;;;;;5093720;28;20434;-61
2021/04/11 00:43:06;;;;;;;38.60;22.88;;;17.30;56.80;;;;;;5094044;28;20078;-62
2021/04/11 00:45:39;;;;;;;40.30;24.02;;;17.30;56.70;;;;;;5093766;28;20457;-62
2021/04/11 00:48:07;;;;;;;35.60;22.88;;;17.30;56.70;;;;;;5093741;28;20030;-62
2021/04/11 00:50:33;;;;;;;30.98;20.83;;;17.30;56.60;;;;;;5093798;28;20024;-62
2021/04/11 00:52:59;;;;;;;37.60;21.73;;;17.30;56.60;;;;;;5093765;28;20016;-61
2021/04/11 00:55:26;;;;;;;35.90;22.85;;;17.30;56.70;;;;;;5093743;28;20099;-62
2021/04/11 00:57:53;;;;;;;35.95;21.85;;;17.30;56.90;;;;;;5093677;28;20028;-62
2021/04/11 01:00:24;;;;;;;39.28;23.33;;;17.20;57.00;;;;;;5095822;28;20028;-62
2021/04/11 01:02:50;;;;;;;;;;;17.20;56.90;;;;;;5097175;28;20463;-62
2021/04/11 01:05:23;;;;;;;34.45;20.02;;;17.20;56.90;;;;;;5097960;28;19915;-62
2021/04/11 01:07:50;;;;;;;29.85;19.30;;;17.10;57.00;;;;;;5097885;28;20024;-62
2021/04/11 01:10:21;;;;;;;33.17;21.08;;;17.10;57.00;;;;;;5097733;28;20043;-62
2021/04/11 01:12:48;;;;;;;33.13;20.00;;;17.10;57.00;;;;;;5097793;28;20020;-62
2021/04/11 01:15:25;;;;;;;32.30;20.83;;;17.10;57.10;;;;;;5097278;28;20043;-62
2021/04/11 01:17:51;;;;;;;31.80;21.45;;;17.10;57.10;;;;;;5097730;28;20063;-62
2021/04/11 01:20:18;;;;;;;31.60;20.52;;;17.10;57.10;;;;;;5097335;28;20074;-62
2021/04/11 01:22:58;;;;;;;33.63;20.33;;;17.10;57.00;;;;;;5097695;28;20502;-62
2021/04/11 01:25:31;;;;;;;33.92;20.92;;;17.10;57.10;;;;;;5097475;28;20050;-63
2021/04/11 01:27:58;;;;;;;28.67;18.88;;;17.10;57.10;;;;;;5097684;28;20032;-62
2021/04/11 01:30:38;;;;;;;29.40;18.88;;;17.10;57.10;;;;;;5097707;28;20048;-62
2021/04/11 01:33:08;;;;;;;29.17;17.87;;;17.00;57.20;;;;;;5097475;28;20059;-62
2021/04/11 01:35:34;;;;;;;32.75;17.70;;;17.00;57.00;;;;;;5097328;28;20028;-61
2021/04/11 01:38:01;;;;;;;33.78;18.05;;;17.10;57.00;;;;;;5096959;28;20039;-62
2021/04/11 01:40:46;;;;;;;30.45;19.13;;;17.00;56.80;;;;;;5097135;28;20031;-62
2021/04/11 01:43:12;;;;;;;29.75;18.10;;;17.00;57.30;;;;;;5097238;28;20035;-62
2021/04/11 01:45:41;;;;;;;23.85;16.02;;;17.10;57.20;;;;;;5097070;28;20077;-62
2021/04/11 01:48:08;;;;;;;29.08;16.13;;;17.10;57.00;;;;;;5096662;28;20103;-62
2021/04/11 01:50:35;;;;;;;24.85;16.83;;;17.10;57.00;;;;;;5096870;28;20032;-62
2021/04/11 01:53:01;;;;;;;25.92;16.52;;;17.10;56.90;;;;;;5097000;28;20024;-62
2021/04/11 01:55:28;;;;;;;27.85;18.23;;;17.10;56.90;;;;;;5097092;28;20107;-61
2021/04/11 01:57:55;;;;;;;25.67;16.00;;;17.10;56.80;;;;;;5096802;28;20428;-61
2021/04/11 02:00:35;;;;;;;26.30;16.67;;;17.20;56.90;;;;;;5096872;28;20038;-61
2021/04/11 02:03:10;;;;;;;24.95;15.32;;;17.30;56.80;;;;;;5096759;28;20071;-62
2021/04/11 02:05:44;;;;;;;22.83;15.35;;;17.30;56.50;;;;;;5097134;28;20035;-61
2021/04/11 02:08:13;;;;;;;23.60;14.85;;;17.40;56.60;;;;;;5096914;28;20034;-61
2021/04/11 02:10:45;;;;;;;27.50;15.83;;;17.50;56.40;;;;;;5095993;28;20074;-61
2021/04/11 02:13:12;;;;;;;20.60;14.02;;;17.60;56.10;;;;;;5095058;28;20262;-62
2021/04/11 02:15:45;;;;;;;24.35;16.08;;;17.70;55.90;;;;;;5096278;28;20028;-61
2021/04/11 02:18:12;;;;;;;25.27;15.82;;;17.80;55.60;;;;;;5096784;28;20087;-61
2021/04/11 02:20:39;;;;;;;24.13;14.43;;;17.80;55.60;;;;;;5096628;28;20031;-61
2021/04/11 02:23:08;;;;;;;22.05;14.43;;;17.80;55.60;;;;;;5096350;28;20082;-61
2021/04/11 02:25:42;;;;;;;20.92;13.48;;;17.80;55.60;;;;;;5096380;28;20024;-62
2021/04/11 02:28:11;;;;;;;22.60;14.45;;;17.90;55.60;;;;;;5096336;28;20020;-62
2021/04/11 02:31:16;;;;;;;21.77;14.20;;;17.90;55.60;;;;;;5096115;28;20055;-61
2021/04/11 02:33:47;;;;;;;27.17;15.13;;;17.90;55.60;;;;;;5096058;28;20460;-61
2021/04/11 02:36:17;;;;;;;20.95;14.07;;;17.80;55.70;;;;;;5096154;28;20028;-62
2021/04/11 02:38:44;;;;;;;24.33;14.30;;;17.90;55.70;;;;;;5095777;28;20368;-62
2021/04/11 02:41:12;;;;;;;18.55;12.23;;;17.90;55.70;;;;;;5095039;28;20493;-61
2021/04/11 02:43:39;;;;;;;20.55;12.10;;;17.80;55.70;;;;;;5095982;28;20055;-61
2021/04/11 02:46:05;;;;;;;20.35;11.85;;;17.80;55.80;;;;;;5095689;28;20493;-61
2021/04/11 02:48:31;;;;;;;22.02;12.80;;;17.90;55.70;;;;;;5095908;28;20024;-62
2021/04/11 02:50:57;;;;;;;20.08;12.73;;;17.90;55.60;;;;;;5095817;28;20158;-62
2021/04/11 02:53:25;;;;;;;21.33;12.23;;;17.90;55.60;;;;;;5095978;28;20024;-61
2021/04/11 02:55:53;;;;;;;17.48;11.68;;;17.90;55.50;;;;;;5095609;28;20486;-61
2021/04/11 02:58:21;;;;;;;19.52;10.98;;;17.90;55.50;;;;;;5095850;28;20028;-61
2021/04/11 03:01:01;;;;;;;16.98;10.45;;;17.90;55.60;;;;;;5095591;28;20042;-61
2021/04/11 03:03:28;;;;;;;17.65;10.43;;;17.90;55.50;;;;;;5095608;28;20099;-61
2021/04/11 03:05:56;;;;;;;16.75;10.93;;;17.90;55.50;;;;;;5095643;28;20031;-61
2021/04/11 03:08:27;;;;;;;20.10;11.90;;;17.90;55.60;;;;;;5095603;28;20020;-61
2021/04/11 03:10:58;;;;;;;;;;;17.90;55.60;;;;;;5096028;28;20447;-61
2021/04/11 03:13:24;;;;;;;18.05;11.07;;;17.80;55.70;;;;;;5095572;28;19904;-61
2021/04/11 03:15:54;;;;;;;16.63;10.13;;;17.80;55.80;;;;;;5095056;28;20028;-61
2021/04/11 03:18:20;;;;;;;19.15;11.32;;;17.80;55.80;;;;;;5094050;28;20371;-62
2021/04/11 03:20:46;;;;;;;18.35;11.48;;;17.70;55.90;;;;;;5095104;28;20028;-61
2021/04/11 03:23:14;;;;;;;19.08;10.60;;;17.70;56.00;;;;;;5094784;28;20028;-62
2021/04/11 03:25:41;;;;;;;17.10;10.80;;;17.70;56.00;;;;;;5095095;28;20483;-62
2021/04/11 03:28:21;;;;;;;17.45;10.60;;;17.70;56.00;;;;;;5094884;28;20058;-62
2021/04/11 03:30:53;;;;;;;19.00;10.50;;;17.60;56.00;;;;;;5093874;28;20534;-61
2021/04/11 03:33:20;;;;;;;15.75;9.65;;;17.60;56.10;;;;;;5095072;28;20070;-61
2021/04/11 03:35:49;;;;;;;18.45;10.57;;;17.60;56.10;;;;;;5095332;28;20055;-61
2021/04/11 03:38:18;;;;;;;16.17;9.48;;;17.60;56.20;;;;;;5094656;28;20028;-61
2021/04/11 03:40:45;;;;;;;16.25;9.80;;;17.60;56.20;;;;;;5094793;28;20080;-62
2021/04/11 03:43:24;;;;;;;15.48;10.10;;;17.60;56.20;;;;;;5094850;28;20036;-62
2021/04/11 03:45:52;;;;;;;16.40;8.82;;;17.50;56.20;;;;;;5094934;28;20024;-61
2021/04/11 03:48:21;;;;;;;12.30;8.35;;;17.50;56.30;;;;;;5094889;28;20464;-61
2021/04/11 03:51:20;;;;;;;14.88;9.70;;;17.50;56.20;;;;;;5094353;28;20111;-61
2021/04/11 03:54:20;;;;;;;17.23;9.13;;;17.50;56.30;;;;;;5095039;28;20048;-61
2021/04/11 03:56:56;;;;;;;17.15;9.57;;;17.60;56.70;;;;;;5094717;28;20089;-61
2021/04/11 03:59:28;;;;;;;13.93;8.40;;;17.60;56.20;;;;;;5094453;28;20036;-62
2021/04/11 04:01:57;;;;;;;14.40;8.30;;;17.50;56.20;;;;;;5095056;28;20430;-62
2021/04/11 04:04:25;;;;;;;15.07;9.35;;;17.60;56.20;;;;;;5094388;28;20460;-62
2021/04/11 04:07:26;;;;;;;13.98;8.77;;;17.60;56.10;;;;;;5094400;28;20028;-61
2021/04/11 04:09:56;;;;;;;12.38;7.50;;;17.60;55.80;;;;;;5092175;28;20043;-62
2021/04/11 04:12:46;;;;;;;14.98;8.48;;;17.60;55.60;;;;;;5094306;28;20078;-61
2021/04/11 04:15:34;;;;;;;13.48;8.27;;;17.60;55.50;;;;;;5094336;28;20028;-61
2021/04/11 04:18:27;;;;;;;18.40;8.32;;;17.50;55.60;;;;;;5094176;28;20020;-62
2021/04/11 04:21:00;;;;;;;16.25;8.07;;;17.50;55.70;;;;;;5094376;28;20032;-61
2021/04/11 04:23:37;;;;;;;13.02;8.15;;;17.40;55.90;;;;;;5094354;28;20066;-62
2021/04/11 04:26:37;;;;;;;14.30;7.85;;;17.40;55.90;;;;;;5094135;28;20024;-62
2021/04/11 04:29:15;;;;;;;13.82;8.55;;;17.40;56.00;;;;;;5094046;28;20075;-62
2021/04/11 04:32:06;;;;;;;13.65;8.00;;;17.40;56.10;;;;;;5093822;28;20031;-61
2021/04/11 04:34:52;;;;;;;11.85;6.85;;;17.30;56.30;;;;;;5093146;28;20108;-61
2021/04/11 04:37:30;;;;;;;12.07;7.45;;;17.30;56.30;;;;;;5093984;28;20388;-62
2021/04/11 04:40:04;;;;;;;14.73;7.88;;;17.30;56.30;;;;;;5093939;28;20118;-62
2021/04/11 04:42:46;;;;;;;13.75;7.28;;;17.30;56.30;;;;;;5094047;28;20032;-61
2021/04/11 04:45:30;;;;;;;12.25;7.40;;;17.30;56.40;;;;;;5093831;28;20053;-62
2021/04/11 04:48:16;;;;;;;13.00;8.30;;;17.30;56.50;;;;;;5093873;28;20093;-61
2021/04/11 04:51:02;;;;;;;12.07;7.32;;;17.30;56.30;;;;;;5094004;28;20028;-61
2021/04/11 04:54:29;;;;;;;11.32;6.80;;;17.20;56.40;;;;;;5092680;28;20033;-62
2021/04/11 04:57:24;;;;;;;11.35;6.70;;;17.20;56.40;;;;;;5091754;28;20039;-60
2021/04/11 05:00:01;;;;;;;11.63;6.10;;;17.20;56.40;;;;;;5084663;28;20067;-62
2021/04/11 05:02:36;;;;;;;11.52;7.30;;;17.30;56.50;;;;;;5093470;28;20028;-62
2021/04/11 05:05:05;;;;;;;9.93;6.05;;;17.30;56.40;;;;;;5093909;28;20016;-61
2021/04/11 05:07:37;;;;;;;12.87;7.40;;;17.30;56.40;;;;;;5092213;28;20457;-61
2021/04/11 05:10:14;;;;;;;9.60;6.00;;;17.30;56.30;;;;;;5093656;28;20452;-62
2021/04/11 05:12:47;;;;;;;12.43;7.13;;;17.30;56.30;;;;;;5093387;28;20115;-61
2021/04/11 05:15:19;;;;;;;13.90;6.85;;;17.30;56.30;;;;;;5093602;28;20028;-62
2021/04/11 05:17:56;;;;;;;10.43;6.65;;;17.30;56.20;;;;;;5093823;28;20016;-62
2021/04/11 05:20:30;;;;;;;11.50;5.93;;;17.30;56.10;;;;;;5093510;28;20115;-63
2021/04/11 05:23:16;;;;;;;9.63;5.50;;;17.30;56.10;;;;;;5093474;28;20472;-61
2021/04/11 05:26:01;;;;;;;11.90;6.68;;;17.20;56.10;;;;;;5093403;28;20031;-62
2021/04/11 05:28:45;;;;;;;9.63;6.35;;;17.20;56.10;;;;;;5093282;28;20020;-61
2021/04/11 05:31:16;;;;;;;9.32;5.65;;;17.20;56.00;;;;;;5093780;28;20028;-62
2021/04/11 05:33:43;;;;;;;9.70;6.22;;;17.20;56.30;;;;;;5093765;28;20046;-61
2021/04/11 05:36:35;;;;;;;10.88;5.63;;;17.20;56.20;;;;;;5093342;28;20032;-62
2021/04/11 05:39:10;;;;;;;10.65;6.00;;;17.20;56.10;;;;;;5092950;28;20414;-61
2021/04/11 05:41:45;;;;;;;9.55;6.60;;;17.10;56.20;;;;;;5093369;28;20039;-61
2021/04/11 05:44:25;;;;;;;9.23;5.22;;;17.10;56.30;;;;;;5093219;28;20116;-61
2021/04/11 05:46:57;;;;;;;8.50;4.90;;;17.10;56.50;;;;;;5096228;28;20063;-61
2021/04/11 05:49:35;;;;;;;8.52;4.75;;;17.10;56.50;;;;;;5096976;28;20035;-61
2021/04/11 05:52:07;;;;;;;9.00;4.70;;;17.20;56.30;;;;;;5097516;28;20028;-61
2021/04/11 05:54:40;;;;;;;8.93;5.30;;;17.30;56.10;;;;;;5097084;28;20032;-61
2021/04/11 05:57:20;;;;;;;7.60;4.43;;;17.50;55.90;;;;;;5097179;28;20413;-61
2021/04/11 05:59:59;;;;;;;9.33;4.70;;;17.60;55.60;;;;;;5096931;28;20047;-61
2021/04/11 06:02:40;;;;;;;9.27;5.13;;;17.80;55.70;;;;;;5097599;28;20032;-61
2021/04/11 06:05:21;;;;;;;10.18;5.22;;;18.10;54.40;;;;;;5096728;28;20067;-61
2021/04/11 06:07:52;;;;;;;7.90;5.10;;;18.30;54.10;;;;;;5096886;28;20038;-61
2021/04/11 06:10:41;;;;;;;7.47;4.40;;;18.40;53.90;;;;;;5096439;28;20034;-62
2021/04/11 06:13:30;;;;;;;7.07;4.47;;;18.40;53.70;;;;;;5096611;28;20078;-61
2021/04/11 06:16:16;;;;;;;7.78;4.53;;;18.40;54.20;;;;;;5096676;28;20127;-61
2021/04/11 06:18:50;;;;;;;5.93;3.53;;;18.20;54.50;;;;;;5096365;28;20024;-62
2021/04/11 06:21:55;;;;;;;9.93;4.78;;;18.20;54.50;;;;;;5096542;28;20101;-61
2021/04/11 06:24:49;;;;;;;7.63;5.40;;;18.20;54.60;;;;;;5095862;28;20111;-61
2021/04/11 06:27:47;;;;;;;8.35;4.90;;;18.20;54.70;;;;;;5095877;28;20039;-61
2021/04/11 06:30:21;;;;;;;7.20;4.18;;;18.10;54.70;;;;;;5096063;28;20048;-61
2021/04/11 06:33:21;;;;;;;8.27;4.30;;;18.10;54.70;;;;;;5096057;28;20456;-61
2021/04/11 06:35:54;;;;;;;8.07;4.30;;;18.10;54.80;;;;;;5096455;28;20028;-61
2021/04/11 06:38:29;;;;;;;9.05;4.28;;;18.10;54.90;;;;;;5096220;28;20509;-61
2021/04/11 06:41:06;;;;;;;8.27;4.57;;;18.10;54.90;;;;;;5096143;28;20032;-61
2021/04/11 06:43:56;;;;;;;8.68;3.92;;;18.10;54.90;;;;;;5096164;28;20056;-61
2021/04/11 06:46:43;;;;;;;6.93;4.17;;;18.00;55.00;;;;;;5096083;28;20032;-61
2021/04/11 06:49:27;;;;;;;6.68;3.80;;;18.00;55.10;;;;;;5095895;28;20039;-61
2021/04/11 06:52:37;;;;;;;7.20;4.20;;;17.90;55.10;;;;;;5095881;28;20027;-62
2021/04/11 06:55:18;;;;;;;7.07;3.80;;;18.00;55.20;;;;;;5095138;28;20047;-61
2021/04/11 06:57:50;;;;;;;8.38;4.10;;;17.90;55.30;;;;;;5095413;28;20119;-61
2021/04/11 07:00:28;;;;;;;11.80;4.28;;;17.90;55.30;;;;;;5095725;28;20035;-61
2021/04/11 07:03:05;;;;;;;5.90;3.33;;;17.90;55.40;;;;;;5096079;28;20060;-61
2021/04/11 07:06:00;;;;;;;6.30;3.30;;;18.00;55.40;;;;;;5095939;28;20032;-61
2021/04/11 07:09:03;;;;;;;7.55;3.55;;;18.00;55.10;;;;;;5095368;28;20028;-61
2021/04/11 07:12:18;;;;;;;8.88;3.75;;;18.00;55.10;;;;;;5095327;28;20032;-61
2021/04/11 07:15:09;;;;;;;7.30;3.58;;;18.00;55.10;;;;;;5086561;28;20028;-61
2021/04/11 07:17:53;;;;;;;8.82;4.07;;;18.10;54.80;;;;;;5095594;28;20106;-61
2021/04/11 07:20:47;;;;;;;6.90;4.28;;;18.10;55.00;;;;;;5095267;28;20028;-61
2021/04/11 07:23:40;;;;;;;6.60;3.40;;;18.10;55.00;;;;;;5095115;28;20036;-61
2021/04/11 07:26:27;;;;;;;6.53;4.15;;;18.00;55.00;;;;;;5095179;28;20031;-61
2021/04/11 07:29:09;;;;;;;5.63;3.55;;;18.00;55.20;;;;;;5095009;28;20044;-61
2021/04/11 07:31:39;;;;;;;7.72;3.33;;;18.00;55.30;;;;;;5095401;28;20453;-61
2021/04/11 07:34:27;;;;;;;;;;;17.90;55.40;;;;;;5095457;28;20031;-61
2021/04/11 07:37:29;;;;;;;7.20;4.07;;;17.80;55.40;;;;;;5094875;28;19911;-61
2021/04/11 07:40:10;;;;;;;5.75;3.55;;;17.80;55.50;;;;;;5093698;28;20048;-61
2021/04/11 07:42:44;;;;;;;5.60;2.85;;;17.80;55.60;;;;;;5094795;28;20064;-61
2021/04/11 07:45:18;;;;;;;8.13;3.75;;;17.80;55.70;;;;;;5095128;28;20495;-61
2021/04/11 07:48:06;;;;;;;6.47;3.22;;;17.80;55.70;;;;;;5094653;28;20035;-61
2021/04/11 07:50:46;;;;;;;7.43;2.80;;;17.80;55.80;;;;;;5094721;28;20036;-61
2021/04/11 07:53:29;;;;;;;7.22;3.47;;;17.80;55.80;;;;;;5094954;28;20028;-61
2021/04/11 07:56:13;;;;;;;6.07;3.10;;;17.70;55.80;;;;;;5094782;28;20361;-61
2021/04/11 07:58:57;;;;;;;5.82;3.42;;;17.70;55.80;;;;;;5094570;28;20107;-61
2021/04/11 08:01:42;;;;;;;6.93;3.30;;;17.70;55.80;;;;;;5094510;28;20040;-61
2021/04/11 08:04:44;;;;;;;8.77;3.42;;;17.70;55.80;;;;;;5094488;28;20020;-61
2021/04/11 08:07:15;;;;;;;8.98;3.28;;;17.70;55.90;;;;;;5094750;28;20024;-61
2021/04/11 08:10:32;;;;;;;5.20;2.78;;;17.70;55.80;;;;;;5093331;28;20123;-61
2021/04/11 08:13:09;;;;;;;7.32;3.08;;;17.70;55.90;;;;;;5092282;28;20036;-61
2021/04/11 08:15:38;;;;;;;7.45;2.95;;;17.80;55.70;;;;;;5094028;28;20082;-61
2021/04/11 08:18:45;;;;;;;7.05;2.90;;;17.80;55.60;;;;;;5094120;28;20154;-61
2021/04/11 08:21:34;;;;;;;9.52;3.00;;;17.80;56.00;;;;;;5093948;28;20388;-65
2021/04/11 08:24:40;;;;;;;13.65;3.25;;;17.90;55.00;;;;;;5092723;28;20040;-62
2021/04/11 08:27:28;;;;;;;9.70;3.03;;;17.90;55.50;;;;;;5094289;28;20468;-62
2021/04/11 08:30:11;;;;;;;9.90;3.20;;;17.90;56.40;;;;;;5094074;28;20090;-61
2021/04/11 08:33:05;;;;;;;9.68;2.30;;;17.90;56.40;;;;;;5093914;28;20032;-61
2021/04/11 08:35:40;;;;;;;11.50;3.13;;;17.90;56.40;;;;;;5094394;28;20031;-61
2021/04/11 08:38:24;;;;;;;8.15;2.92;;;17.90;56.60;;;;;;5093546;28;20062;-62
2021/04/11 08:41:37;;;;;;;8.45;3.28;;;17.90;56.40;;;;;;5093988;28;20028;-65
2021/04/11 08:44:51;;;;;;;7.53;2.45;;;18.00;56.10;;;;;;5093719;28;20020;-61
2021/04/11 08:47:39;;;;;;;24.10;14.95;;;17.80;55.20;;;;;;5072608;28;20526;-60
2021/04/11 08:50:15;;;;;;;56.53;31.35;;;17.70;55.00;;;;;;5073899;28;20028;-61
2021/04/11 08:52:51;;;;;;;77.88;48.00;;;17.80;54.60;;;;;;5073976;28;20029;-63
2021/04/11 08:55:38;;;;;;;124.07;74.07;;;17.80;54.40;;;;;;5092532;28;20424;-61
2021/04/11 08:58:28;;;;;;;146.80;87.47;;;17.80;54.20;;;;;;5093793;28;20020;-67
2021/04/11 09:01:13;;;;;;;123.80;71.55;;;17.90;53.90;;;;;;5092571;28;20059;-63
2021/04/11 09:04:08;;;;;;;94.10;53.55;;;17.90;53.20;;;;;;5092395;28;20039;-62
2021/04/11 09:06:49;;;;;;;65.22;39.45;;;17.80;52.80;;;;;;5092287;28;20024;-63
2021/04/11 09:09:33;;;;;;;53.72;30.85;;;17.80;53.30;;;;;;5093695;28;20107;-63
2021/04/11 09:12:23;;;;;;;37.55;20.92;;;17.70;52.40;;;;;;5093815;28;20392;-63
2021/04/11 09:15:24;;;;;;;33.40;19.40;;;17.70;53.00;;;;;;5093863;28;20455;-63
2021/04/11 09:17:57;;;;;;;22.88;12.98;;;17.70;52.30;;;;;;5093004;28;20423;-63
2021/04/11 09:20:26;;;;;;;16.95;10.10;;;17.70;52.20;;;;;;5094664;28;20428;-63
2021/04/11 09:22:57;;;;;;;20.30;9.73;;;17.70;52.10;;;;;;5097542;28;20031;-63
2021/04/11 09:25:29;;;;;;;21.00;8.65;;;17.70;52.00;;;;;;5097707;28;20032;-62
2021/04/11 09:28:09;;;;;;;15.20;6.07;;;17.80;52.00;;;;;;5097507;28;20070;-66
2021/04/11 09:31:00;;;;;;;11.25;5.45;;;17.80;51.70;;;;;;5097058;28;20052;-67
2021/04/11 09:33:52;;;;;;;12.25;6.30;;;17.80;52.10;;;;;;5097470;28;20073;-63
2021/04/11 09:36:54;;;;;;;23.20;7.25;;;17.80;52.20;;;;;;5097153;28;20107;-63
2021/04/11 09:39:23;;;;;;;16.15;6.50;;;17.80;52.60;;;;;;5097305;28;20093;-63
2021/04/11 09:42:04;;;;;;;19.40;6.82;;;17.70;52.60;;;;;;5097323;28;20067;-62
2021/04/11 09:44:32;;;;;;;;;;;17.80;53.00;;;;;;5097596;28;20379;-62
2021/04/11 09:47:03;;;;;;;15.65;7.28;;;17.70;53.10;;;;;;5097168;28;19957;-63
2021/04/11 09:49:54;;;;;;;13.98;6.30;;;17.70;53.20;;;;;;5097093;28;20028;-63
2021/04/11 09:52:50;;;;;;;18.50;6.47;;;17.70;53.20;;;;;;5097038;28;20035;-63
2021/04/11 09:55:24;;;;;;;12.10;5.70;;;17.70;53.30;;;;;;5097264;28;20545;-63
2021/04/11 09:58:31;;;;;;;15.70;7.53;;;17.70;53.50;;;;;;5096950;28;20051;-63
2021/04/11 10:01:39;;;;;;;13.77;6.18;;;17.70;53.70;;;;;;5096004;28;20438;-64
2021/04/11 10:04:35;;;;;;;11.32;6.20;;;17.70;53.60;;;;;;5097220;28;20032;-63
2021/04/11 10:07:36;;;;;;;15.32;6.55;;;17.60;53.70;;;;;;5096641;28;20074;-63
2021/04/11 10:10:41;;;;;;;11.95;5.68;;;17.60;53.80;;;;;;5095895;28;20036;-63
2021/04/11 10:13:37;;;;;;;16.55;6.10;;;17.60;54.00;;;;;;5095400;28;20119;-63
2021/04/11 10:16:24;;;;;;;18.25;5.88;;;17.70;53.70;;;;;;5096658;28;20376;-63
2021/04/11 10:19:14;;;;;;;18.08;6.97;;;17.70;53.50;;;;;;5096651;28;20051;-63
2021/04/11 10:22:16;;;;;;;12.60;5.93;;;17.80;53.50;;;;;;5096510;28;20043;-63
2021/04/11 10:25:05;;;;;;;10.68;6.05;;;17.80;53.60;;;;;;5096268;28;20024;-63
2021/04/11 10:27:36;;;;;;;16.40;6.60;;;17.80;53.60;;;;;;5096492;28;20496;-63
2021/04/11 10:30:05;;;;;;;11.30;5.20;;;17.70;53.60;;;;;;5096546;28;20062;-65
2021/04/11 10:32:42;;;;;;;10.55;6.38;;;17.70;53.70;;;;;;5093746;28;20036;-65
2021/04/11 10:35:33;;;;;;;10.98;5.88;;;17.80;54.40;;;;;;5096553;28;20048;-64
2021/04/11 10:38:12;;;;;;;20.17;5.28;;;17.70;53.90;;;;;;5094726;28;20031;-66
2021/04/11 10:41:14;;;;;;;15.85;5.50;;;17.70;53.70;;;;;;5096131;28;20050;-67
2021/04/11 10:44:10;;;;;;;13.02;5.85;;;17.70;53.80;;;;;;5095380;28;20082;-68
2021/04/11 10:47:20;;;;;;;15.15;4.70;;;17.60;53.80;;;;;;5096075;28;20083;-65
2021/04/11 10:49:46;;;;;;;12.93;5.25;;;17.60;53.80;;;;;;5095974;28;20479;-68
2021/04/11 10:52:30;;;;;;;12.27;6.18;;;17.50;54.00;;;;;;5095920;28;20024;-68
2021/04/11 10:55:07;;;;;;;12.07;4.88;;;17.50;54.00;;;;;;5096260;28;20112;-66
2021/04/11 10:57:58;;;;;;;11.85;4.13;;;17.40;53.90;;;;;;5095793;28;20112;-65
2021/04/11 11:00:30;;;;;;;8.98;4.22;;;17.40;53.90;;;;;;5094375;28;20036;-65
2021/04/11 11:03:05;;;;;;;13.90;4.57;;;17.50;53.90;;;;;;5095657;28;20024;-65
2021/04/11 11:06:08;;;;;;;12.38;4.10;;;17.50;53.80;;;;;;5095422;28;20506;-65
2021/04/11 11:09:14;;;;;;;13.10;5.22;;;17.40;54.10;;;;;;5095863;28;20058;-65
2021/04/11 11:11:58;;;;;;;11.05;4.22;;;17.40;54.30;;;;;;5094336;28;20031;-65
2021/04/11 11:14:36;;;;;;;10.88;4.78;;;17.30;54.50;;;;;;5095501;28;20103;-64
2021/04/11 11:17:04;;;;;;;10.63;4.22;;;17.30;54.30;;;;;;5095300;28;20368;-65
2021/04/11 11:19:58;;;;;;;9.75;4.47;;;17.40;54.40;;;;;;5095345;28;20036;-65
2021/04/11 11:23:04;;;;;;;10.02;3.95;;;17.40;54.20;;;;;;5095166;28;20024;-65
2021/04/11 11:25:45;;;;;;;11.07;4.57;;;17.50;54.10;;;;;;5094080;28;20098;-65
2021/04/11 11:28:35;;;;;;;14.30;4.35;;;17.50;54.10;;;;;;5095280;28;20032;-65
2021/04/11 11:31:27;;;;;;;7.30;3.63;;;17.60;54.10;;;;;;5095208;28;20046;-65
2021/04/11 11:34:21;;;;;;;11.73;4.50;;;17.60;54.00;;;;;;5093846;28;20032;-65
2021/04/11 11:37:05;;;;;;;12.23;4.07;;;17.60;54.00;;;;;;5094884;28;20376;-65
2021/04/11 11:40:11;;;;;;;12.05;4.43;;;17.50;54.00;;;;;;5093597;28;20503;-65
2021/04/11 11:43:22;;;;;;;6.80;3.65;;;17.50;54.10;;;;;;5094847;28;20039;-65
2021/04/11 11:45:48;;;;;;;7.93;3.92;;;17.40;54.20;;;;;;5094737;28;20036;-65
2021/04/11 11:48:47;;;;;;;8.88;4.40;;;17.40;54.20;;;;;;5094867;28;20035;-65
2021/04/11 11:51:34;;;;;;;8.18;3.53;;;17.40;54.30;;;;;;5094722;28;20537;-65
2021/04/11 11:54:12;;;;;;;12.00;3.95;;;17.40;54.30;;;;;;5094699;28;20035;-65
2021/04/11 11:56:43;;;;;;;9.18;3.17;;;17.30;54.20;;;;;;5094857;28;20047;-65
2021/04/11 11:59:38;;;;;;;9.15;3.47;;;17.30;54.30;;;;;;5094711;28;20024;-65
2021/04/11 12:02:26;;;;;;;8.13;4.13;;;17.30;54.40;;;;;;5093605;28;20068;-65
2021/04/11 12:05:07;;;;;;;7.65;3.65;;;17.30;54.40;;;;;;5094609;28;20024;-65
2021/04/11 12:07:56;;;;;;;9.13;3.95;;;17.20;54.40;;;;;;5094365;28;20042;-65
2021/04/11 12:10:33;;;;;;;8.88;3.63;;;17.20;54.60;;;;;;5094478;28;20036;-65
2021/04/11 12:13:07;;;;;;;9.05;4.35;;;17.20;54.60;;;;;;5094700;28;20485;-65
2021/04/11 12:16:16;;;;;;;10.38;5.20;;;17.20;54.80;;;;;;5094219;28;20108;-65
2021/04/11 12:19:10;;;;;;;10.63;4.25;;;17.20;54.70;;;;;;5093841;28;20119;-65
2021/04/11 12:22:05;;;;;;;8.32;4.55;;;17.20;54.80;;;;;;5093912;28;20042;-65
2021/04/11 12:24:55;;;;;;;10.60;4.15;;;17.20;54.70;;;;;;5093027;28;20107;-65
2021/04/11 12:27:31;;;;;;;8.30;4.22;;;17.30;54.60;;;;;;5094225;28;20110;-65
2021/04/11 12:29:59;;;;;;;9.20;4.30;;;17.40;54.30;;;;;;5094175;28;20079;-65
2021/04/11 12:32:39;;;;;;;7.78;3.83;;;17.50;54.20;;;;;;5094486;28;20031;-64
2021/04/11 12:35:28;;;;;;;10.43;3.15;;;17.60;54.00;;;;;;5094059;28;20020;-66
2021/04/11 12:38:33;;;;;;;7.20;3.78;;;17.70;54.40;;;;;;5093675;28;20024;-65
2021/04/11 12:41:03;;;;;;;11.52;3.85;;;17.80;53.80;;;;;;5092362;28;20066;-65
2021/04/11 12:43:35;;;;;;;6.57;3.58;;;17.90;53.40;;;;;;5093924;28;20052;-65
2021/04/11 12:46:18;;;;;;;6.13;2.70;;;18.00;53.20;;;;;;5093704;28;20479;-65
2021/04/11 12:48:59;;;;;;;8.65;3.50;;;18.10;52.80;;;;;;5093982;28;20041;-65
2021/04/11 12:51:30;;;;;;;7.20;3.42;;;18.20;52.70;;;;;;5093916;28;20028;-65
2021/04/11 12:54:05;;;;;;;5.25;3.03;;;18.20;52.60;;;;;;5093900;28;20031;-66
2021/04/11 12:56:32;;;;;;;7.00;3.95;;;18.20;52.50;;;;;;5093290;28;20024;-65
2021/04/11 12:59:09;;;;;;;6.78;3.28;;;18.30;52.50;;;;;;5094155;28;20051;-65
2021/04/11 13:01:43;;;;;;;5.35;3.45;;;18.30;52.50;;;;;;5093914;28;20023;-65
2021/04/11 13:04:27;;;;;;;6.25;2.90;;;18.30;52.60;;;;;;5093778;28;20107;-65
2021/04/11 13:07:06;;;;;;;5.85;3.08;;;18.30;52.60;;;;;;5093713;28;20020;-65
2021/04/11 13:09:41;;;;;;;7.15;2.95;;;18.20;52.60;;;;;;5093851;28;20024;-65
2021/04/11 13:12:22;;;;;;;7.03;3.30;;;18.20;52.60;;;;;;5093591;28;20028;-65
2021/04/11 13:14:58;;;;;;;5.85;3.30;;;18.20;52.70;;;;;;5093606;28;20035;-65
2021/04/11 13:17:45;;;;;;;6.60;2.70;;;18.20;52.80;;;;;;5093702;28;20024;-65
2021/04/11 13:20:26;;;;;;;6.25;3.33;;;18.20;52.80;;;;;;5093573;28;20036;-70
2021/04/11 13:23:05;;;;;;;7.13;2.75;;;18.20;53.00;;;;;;5093258;28;20072;-62
2021/04/11 13:25:46;;;;;;;7.45;3.17;;;18.10;53.60;;;;;;5093713;28;20024;-64
2021/04/11 13:28:24;;;;;;;15.23;3.03;;;18.10;53.90;;;;;;5093819;28;20024;-64
2021/04/11 13:31:10;;;;;;;6.45;2.60;;;18.10;53.80;;;;;;5093647;28;20102;-68
2021/04/11 13:33:51;;;;;;;13.85;2.28;;;18.10;53.20;;;;;;5091950;28;20150;-67
2021/04/11 13:36:29;;;;;;;13.10;3.58;;;18.10;53.50;;;;;;5093469;28;20027;-67
2021/04/11 13:39:24;;;;;;;96.53;57.35;;;18.10;53.50;;;;;;5093449;28;20016;-65
2021/04/11 13:42:11;;;;;;;162.13;89.82;;;18.10;53.90;;;;;;5093357;28;20090;-63
2021/04/11 13:44:57;;;;;;;150.40;81.68;;;18.10;54.00;;;;;;5093148;28;20063;-66